createdAt,value
2022-11-12T00:00:24.517Z,19.30
2022-11-12T00:03:15.117Z,19.60
2022-11-12T00:06:02.853Z,18.40
2022-11-12T00:08:50.071Z,16.60
2022-11-12T00:11:37.295Z,15.50
2022-11-12T00:14:24.617Z,16.00
2022-11-12T00:17:12.145Z,16.20
2022-11-12T00:19:59.572Z,17.60
2022-11-12T00:22:46.997Z,17.00
2022-11-12T00:25:34.936Z,15.70
2022-11-12T00:28:22.158Z,18.60
2022-11-12T00:31:11.780Z,22.60
2022-11-12T00:33:59.469Z,24.10
2022-11-12T00:36:46.689Z,26.40
2022-11-12T00:39:34.114Z,25.10
2022-11-12T00:42:21.543Z,27.20
2022-11-12T00:45:09.929Z,29.80
2022-11-12T00:47:57.828Z,27.80
2022-11-12T00:50:45.050Z,28.30
2022-11-12T00:53:33.371Z,29.70
2022-11-12T00:56:20.414Z,29.60
2022-11-12T00:59:07.840Z,29.30
2022-11-12T01:01:55.266Z,28.50
2022-11-12T01:04:42.815Z,28.20
2022-11-12T01:07:30.325Z,26.30
2022-11-12T01:10:17.750Z,24.00
2022-11-12T01:13:04.970Z,26.60
2022-11-12T01:15:52.500Z,26.00
2022-11-12T01:18:40.543Z,23.10
2022-11-12T01:21:31.403Z,22.60
2022-11-12T01:24:18.773Z,21.70
2022-11-12T01:27:06.405Z,20.80
2022-11-12T01:29:53.936Z,18.60
2022-11-12T01:32:41.359Z,18.60
2022-11-12T01:35:28.594Z,19.10
2022-11-12T01:38:16.015Z,16.80
2022-11-12T01:41:05.072Z,18.40
2022-11-12T01:44:29.465Z,18.70
2022-11-12T01:47:33.586Z,18.60
2022-11-12T01:50:27.309Z,18.20
2022-11-12T01:53:15.093Z,15.70
2022-11-12T01:56:05.541Z,16.60
2022-11-12T01:59:02.604Z,16.40
2022-11-12T02:01:50.168Z,16.70
2022-11-12T02:04:40.959Z,16.10
2022-11-12T02:07:29.817Z,17.10
2022-11-12T02:10:17.268Z,16.20
2022-11-12T02:13:23.329Z,15.90
2022-11-12T02:16:11.165Z,15.80
2022-11-12T02:18:59.041Z,14.40
2022-11-12T02:21:47.251Z,13.40
2022-11-12T02:24:37.064Z,13.40
2022-11-12T02:27:24.759Z,13.70
2022-11-12T02:30:12.898Z,14.80
2022-11-12T02:33:00.942Z,15.70
2022-11-12T02:35:48.171Z,13.90
2022-11-12T02:38:35.487Z,13.50
2022-11-12T02:41:23.218Z,13.60
2022-11-12T02:44:10.848Z,14.00
2022-11-12T02:46:58.069Z,15.00
2022-11-12T02:49:45.291Z,13.70
2022-11-12T02:52:33.023Z,14.40
2022-11-12T02:55:20.758Z,13.10
2022-11-12T02:58:08.183Z,12.50
2022-11-12T03:00:56.379Z,12.40
2022-11-12T03:03:43.651Z,12.10
2022-11-12T03:06:31.077Z,11.90
2022-11-12T03:09:18.196Z,12.40
2022-11-12T03:12:06.135Z,11.10
2022-11-12T03:14:53.156Z,10.40
2022-11-12T03:17:40.476Z,11.10
2022-11-12T03:20:28.741Z,10.60
2022-11-12T03:23:15.948Z,10.10
2022-11-12T03:26:05.626Z,10.50
2022-11-12T03:28:53.154Z,9.80
2022-11-12T03:31:40.575Z,9.80
2022-11-12T03:34:27.798Z,9.40
2022-11-12T03:37:15.121Z,9.30
2022-11-12T03:40:02.245Z,8.40
2022-11-12T03:42:52.284Z,8.90
2022-11-12T03:45:39.657Z,9.10
2022-11-12T03:48:27.208Z,8.60
2022-11-12T03:51:16.658Z,8.20
2022-11-12T03:54:04.598Z,9.20
2022-11-12T03:56:51.922Z,7.80
2022-11-12T03:59:39.243Z,7.10
2022-11-12T04:02:27.081Z,6.80
2022-11-12T04:05:33.862Z,7.50
2022-11-12T04:08:36.256Z,8.30
2022-11-12T04:11:24.992Z,7.70
2022-11-12T04:14:12.418Z,8.00
2022-11-12T04:17:18.481Z,7.70
2022-11-12T04:20:25.673Z,7.70
2022-11-12T04:23:13.209Z,8.50
2022-11-12T04:26:19.468Z,7.10
2022-11-12T04:29:25.532Z,7.70
2022-11-12T04:32:12.958Z,7.00
2022-11-12T04:35:01.297Z,7.30
2022-11-12T04:37:49.347Z,7.40
2022-11-12T04:40:55.717Z,7.30
2022-11-12T04:44:01.780Z,8.00
2022-11-12T04:46:49.162Z,8.10
2022-11-12T04:49:36.530Z,7.40
2022-11-12T04:52:24.161Z,9.40
2022-11-12T04:55:12.102Z,7.80
2022-11-12T04:58:01.005Z,8.30
2022-11-12T05:00:50.007Z,9.10
2022-11-12T05:03:37.146Z,9.20
2022-11-12T05:06:43.140Z,8.00
2022-11-12T05:09:30.940Z,8.50
2022-11-12T05:12:18.470Z,8.20
2022-11-12T05:15:06.922Z,10.40
2022-11-12T05:17:54.244Z,9.70
2022-11-12T05:20:41.670Z,10.60
2022-11-12T05:23:29.192Z,10.70
2022-11-12T05:26:16.727Z,11.30
2022-11-12T05:29:08.671Z,10.20
2022-11-12T05:31:56.499Z,10.90
2022-11-12T05:34:43.819Z,11.20
2022-11-12T05:37:31.243Z,11.30
2022-11-12T05:40:18.467Z,10.40
2022-11-12T05:43:05.688Z,11.60
2022-11-12T05:45:53.012Z,9.70
2022-11-12T05:48:40.334Z,11.20
2022-11-12T05:51:27.761Z,12.20
2022-11-12T05:54:15.187Z,10.60
2022-11-12T05:57:02.622Z,11.80
2022-11-12T05:59:49.834Z,12.60
2022-11-12T06:02:37.293Z,11.20
2022-11-12T06:05:24.790Z,12.00
2022-11-12T06:08:12.216Z,11.80
2022-11-12T06:10:59.641Z,11.20
2022-11-12T06:13:46.968Z,10.60
2022-11-12T06:16:34.495Z,11.60
2022-11-12T06:19:21.614Z,11.70
2022-11-12T06:22:08.936Z,11.20
2022-11-12T06:24:56.363Z,10.30
2022-11-12T06:27:43.688Z,10.80
2022-11-12T06:30:31.012Z,10.90
2022-11-12T06:33:18.538Z,10.30
2022-11-12T06:36:07.496Z,11.20
2022-11-12T06:38:54.929Z,11.60
2022-11-12T06:41:42.254Z,11.30
2022-11-12T06:44:29.449Z,11.40
2022-11-12T06:47:17.006Z,10.20
2022-11-12T06:50:05.247Z,12.70
2022-11-12T06:52:58.446Z,13.90
2022-11-12T06:55:46.448Z,14.30
2022-11-12T06:58:34.492Z,18.50
2022-11-12T07:01:22.171Z,19.80
2022-11-12T07:04:10.709Z,21.40
2022-11-12T07:06:57.806Z,23.40
2022-11-12T07:09:45.116Z,22.50
2022-11-12T07:12:32.543Z,20.30
2022-11-12T07:15:19.672Z,22.10
2022-11-12T07:18:06.987Z,21.70
2022-11-12T07:21:02.828Z,17.50
2022-11-12T07:23:50.338Z,16.50
2022-11-12T07:26:37.661Z,15.60
2022-11-12T07:29:46.348Z,13.90
2022-11-12T07:32:32.484Z,13.80
2022-11-12T07:35:19.705Z,16.10
2022-11-12T07:38:07.130Z,17.30
2022-11-12T07:41:11.759Z,13.70
2022-11-12T07:43:59.291Z,26.80
2022-11-12T07:46:46.304Z,20.50
2022-11-12T07:49:33.733Z,25.00
2022-11-12T07:52:21.787Z,18.40
2022-11-12T07:55:09.588Z,19.00
2022-11-12T07:58:00.549Z,14.80
2022-11-12T08:00:47.945Z,16.40
2022-11-12T08:03:35.580Z,19.00
2022-11-12T08:06:23.975Z,16.90
2022-11-12T08:09:11.658Z,26.90
2022-11-12T08:11:59.187Z,31.80
2022-11-12T08:14:46.510Z,32.10
2022-11-12T08:17:38.951Z,42.70
2022-11-12T08:20:25.967Z,42.60
2022-11-12T08:23:13.707Z,31.30
2022-11-12T08:26:04.168Z,28.00
2022-11-12T08:28:52.145Z,27.20
2022-11-12T08:31:39.568Z,28.10
2022-11-12T08:34:26.997Z,19.10
2022-11-12T08:37:14.135Z,17.50
2022-11-12T08:40:01.754Z,19.70
2022-11-12T08:42:48.934Z,18.70
2022-11-12T08:45:40.087Z,19.10
2022-11-12T08:48:29.317Z,18.90
2022-11-12T08:51:17.387Z,17.60
2022-11-12T08:54:05.124Z,17.80
2022-11-12T08:56:52.544Z,20.20
2022-11-12T08:59:40.075Z,27.10
2022-11-12T09:02:27.398Z,19.70
2022-11-12T09:05:14.822Z,15.00
2022-11-12T09:08:06.886Z,10.30
2022-11-12T09:10:54.489Z,9.10
2022-11-12T09:13:42.181Z,6.70
2022-11-12T09:16:30.059Z,6.00
2022-11-12T09:19:17.505Z,6.80
2022-11-12T09:22:05.319Z,6.70
2022-11-12T09:24:52.543Z,5.50
2022-11-12T09:27:43.187Z,16.50
2022-11-12T09:30:37.039Z,11.80
2022-11-12T09:33:30.087Z,12.20
2022-11-12T09:36:18.530Z,7.40
2022-11-12T09:39:05.764Z,6.40
2022-11-12T09:41:55.536Z,8.90
2022-11-12T09:45:18.404Z,9.30
2022-11-12T09:48:11.747Z,9.60
2022-11-12T09:51:12.596Z,8.40
2022-11-12T09:54:22.652Z,7.00
2022-11-12T09:57:14.890Z,10.20
2022-11-12T10:00:03.715Z,14.30
2022-11-12T10:03:07.775Z,9.90
2022-11-12T10:06:35.898Z,11.30
2022-11-12T10:09:30.280Z,10.80
2022-11-12T10:12:47.877Z,9.80
2022-11-12T10:16:24.052Z,8.60
2022-11-12T10:19:40.555Z,7.30
2022-11-12T10:23:07.602Z,7.50
2022-11-12T10:26:09.570Z,6.80
2022-11-12T10:29:08.284Z,6.50
2022-11-12T10:31:56.001Z,7.50
2022-11-12T10:34:43.420Z,6.80
2022-11-12T10:38:04.641Z,7.10
2022-11-12T10:40:52.391Z,6.60
2022-11-12T10:43:53.996Z,7.40
2022-11-12T10:46:41.458Z,7.20
2022-11-12T10:49:29.353Z,7.30
2022-11-12T10:52:24.798Z,7.70
2022-11-12T10:55:37.149Z,7.10
2022-11-12T10:58:24.924Z,8.40
2022-11-12T11:01:18.012Z,8.10
2022-11-12T11:04:15.680Z,7.20
2022-11-12T11:07:16.448Z,6.20
2022-11-12T11:10:05.017Z,7.40
2022-11-12T11:13:23.119Z,7.30
2022-11-12T11:16:21.309Z,5.70
2022-11-12T11:19:09.603Z,5.50
2022-11-12T11:22:23.409Z,6.90
2022-11-12T11:25:45.541Z,5.60
2022-11-12T11:28:59.785Z,6.60
2022-11-12T11:31:57.963Z,5.80
2022-11-12T11:35:05.073Z,5.70
2022-11-12T11:38:08.860Z,4.70
2022-11-12T11:41:02.737Z,6.30
2022-11-12T11:44:03.518Z,6.20
2022-11-12T11:47:50.551Z,6.80
2022-11-12T11:50:56.359Z,6.50
2022-11-12T11:54:15.528Z,5.60
2022-11-12T11:57:12.602Z,4.70
2022-11-12T12:00:21.495Z,4.70
2022-11-12T12:03:41.553Z,3.50
2022-11-12T12:06:33.127Z,3.40
2022-11-12T12:09:38.370Z,7.80
2022-11-12T12:12:40.439Z,4.50
2022-11-12T12:15:52.648Z,3.10
2022-11-12T12:19:03.627Z,2.80
2022-11-12T12:21:52.764Z,3.10
2022-11-12T12:24:58.476Z,4.10
2022-11-12T12:28:13.224Z,2.90
2022-11-12T12:31:09.082Z,3.20
2022-11-12T12:34:06.910Z,2.70
2022-11-12T12:37:21.181Z,2.70
2022-11-12T12:40:43.613Z,2.20
2022-11-12T12:43:53.154Z,3.40
2022-11-12T12:46:58.647Z,10.00
2022-11-12T12:49:49.553Z,5.30
2022-11-12T12:53:25.684Z,3.60
2022-11-12T12:56:15.770Z,4.70
2022-11-12T12:59:04.222Z,3.70
2022-11-12T13:02:01.994Z,4.60
2022-11-12T13:04:57.580Z,5.90
2022-11-12T13:07:50.064Z,4.70
2022-11-12T13:10:37.384Z,3.30
2022-11-12T13:13:37.835Z,3.00
2022-11-12T13:16:51.554Z,1.90
2022-11-12T13:20:08.758Z,4.10
2022-11-12T13:22:56.428Z,3.30
2022-11-12T13:25:44.038Z,3.60
2022-11-12T13:28:31.903Z,3.60
2022-11-12T13:31:30.391Z,3.40
2022-11-12T13:34:32.955Z,2.90
2022-11-12T13:37:23.545Z,2.80
2022-11-12T13:40:24.488Z,2.70
2022-11-12T13:43:35.986Z,2.80
2022-11-12T13:46:34.359Z,3.10
2022-11-12T13:49:22.400Z,3.50
2022-11-12T13:52:14.699Z,2.80
2022-11-12T13:55:18.040Z,2.80
2022-11-12T13:58:18.711Z,2.80
2022-11-12T14:01:08.074Z,2.70
2022-11-12T14:03:55.378Z,3.80
2022-11-12T14:06:57.559Z,3.10
2022-11-12T14:10:34.943Z,3.70
2022-11-12T14:13:56.777Z,3.00
2022-11-12T14:17:00.387Z,2.70
2022-11-12T14:20:19.044Z,2.90
2022-11-12T14:23:20.074Z,2.50
2022-11-12T14:26:13.318Z,2.60
2022-11-12T14:29:01.229Z,3.90
2022-11-12T14:32:03.262Z,3.90
2022-11-12T14:34:50.786Z,4.50
2022-11-12T14:37:43.280Z,4.20
2022-11-12T14:40:55.872Z,6.10
2022-11-12T14:43:46.610Z,7.80
2022-11-12T14:46:45.345Z,6.80
2022-11-12T14:49:44.870Z,9.40
2022-11-12T14:52:43.509Z,10.20
2022-11-12T14:55:36.087Z,9.30
2022-11-12T14:58:25.285Z,9.10
2022-11-12T15:02:08.792Z,8.70
2022-11-12T15:04:56.004Z,9.10
2022-11-12T15:08:10.992Z,8.40
2022-11-12T15:11:22.486Z,13.60
2022-11-12T15:14:22.045Z,14.30
2022-11-12T15:17:34.914Z,13.50
2022-11-12T15:20:22.508Z,11.90
2022-11-12T15:23:19.803Z,10.90
2022-11-12T15:26:23.513Z,8.10
2022-11-12T15:29:10.741Z,7.30
2022-11-12T15:32:24.101Z,7.00
2022-11-12T15:35:22.189Z,7.30
2022-11-12T15:38:38.850Z,9.60
2022-11-12T15:41:30.767Z,9.80
2022-11-12T15:44:18.418Z,9.80
2022-11-12T15:47:06.457Z,9.50
2022-11-12T15:49:59.427Z,9.00
2022-11-12T15:52:47.395Z,10.50
2022-11-12T15:55:38.055Z,12.10
2022-11-12T15:58:34.110Z,21.90
2022-11-12T16:01:21.788Z,20.80
2022-11-12T16:04:14.158Z,29.50
2022-11-12T16:07:01.750Z,30.00
2022-11-12T16:09:49.439Z,30.10
2022-11-12T16:12:36.849Z,25.40
2022-11-12T16:15:25.841Z,25.70
2022-11-12T16:18:13.133Z,21.90
2022-11-12T16:21:00.380Z,24.60
2022-11-12T16:23:48.095Z,21.70
2022-11-12T16:26:37.071Z,25.10
2022-11-12T16:29:24.272Z,20.60
2022-11-12T16:32:15.592Z,20.50
2022-11-12T16:35:03.219Z,21.40
2022-11-12T16:37:53.924Z,23.50
2022-11-12T16:40:42.376Z,26.70
2022-11-12T16:43:30.350Z,23.80
2022-11-12T16:46:39.612Z,27.00
2022-11-12T16:49:27.081Z,28.40
2022-11-12T16:52:14.815Z,31.40
2022-11-12T16:55:04.765Z,33.40
2022-11-12T16:57:52.531Z,33.00
2022-11-12T17:00:50.450Z,30.90
2022-11-12T17:03:38.239Z,32.80
2022-11-12T17:06:41.018Z,32.70
2022-11-12T17:09:28.553Z,28.90
2022-11-12T17:12:15.983Z,31.60
2022-11-12T17:15:03.816Z,34.70
2022-11-12T17:17:54.513Z,35.80
2022-11-12T17:20:42.195Z,30.80
2022-11-12T17:23:30.935Z,28.70
2022-11-12T17:26:20.795Z,25.20
2022-11-12T17:29:08.604Z,21.60
2022-11-12T17:31:55.950Z,21.40
2022-11-12T17:34:43.582Z,20.80
2022-11-12T17:37:31.146Z,20.90
2022-11-12T17:40:18.537Z,19.80
2022-11-12T17:43:05.761Z,20.10
2022-11-12T17:45:55.227Z,23.20
2022-11-12T17:48:43.069Z,26.80
2022-11-12T17:51:30.291Z,25.50
2022-11-12T17:54:17.935Z,23.10
2022-11-12T17:57:05.656Z,22.20
2022-11-12T17:59:53.527Z,24.80
2022-11-12T18:02:40.611Z,22.70
2022-11-12T18:05:28.038Z,50.80
2022-11-12T18:08:16.077Z,62.20
2022-11-12T18:11:06.270Z,65.90
2022-11-12T18:13:54.006Z,51.70
2022-11-12T18:16:41.859Z,87.70
2022-11-12T18:19:29.577Z,67.00
2022-11-12T18:22:17.307Z,46.10
2022-11-12T18:25:07.632Z,29.40
2022-11-12T18:27:55.230Z,18.70
2022-11-12T18:30:42.656Z,23.80
2022-11-12T18:33:31.154Z,26.10
2022-11-12T18:36:24.410Z,26.30
2022-11-12T18:39:12.106Z,19.80
2022-11-12T18:41:59.426Z,16.10
2022-11-12T18:44:46.865Z,17.70
2022-11-12T18:47:34.588Z,16.30
2022-11-12T18:50:22.220Z,16.10
2022-11-12T18:53:09.602Z,15.60
2022-11-12T18:56:02.603Z,28.90
2022-11-12T18:58:50.638Z,27.10
2022-11-12T19:01:38.619Z,32.40
2022-11-12T19:04:26.619Z,38.70
2022-11-12T19:07:14.272Z,36.40
2022-11-12T19:10:14.715Z,33.30
2022-11-12T19:13:05.259Z,37.00
2022-11-12T19:15:52.811Z,44.60
2022-11-12T19:18:42.152Z,40.30
2022-11-12T19:21:29.608Z,30.30
2022-11-12T19:24:17.551Z,27.60
2022-11-12T19:27:05.301Z,25.20
2022-11-12T19:29:52.808Z,25.20
2022-11-12T19:32:40.471Z,24.00
2022-11-12T19:35:28.082Z,23.30
2022-11-12T19:38:15.805Z,26.00
2022-11-12T19:41:19.481Z,29.70
2022-11-12T19:44:07.662Z,46.50
2022-11-12T19:46:55.393Z,47.90
2022-11-12T19:49:43.145Z,53.30
2022-11-12T19:52:30.656Z,53.30
2022-11-12T19:55:18.709Z,59.20
2022-11-12T19:58:08.349Z,50.80
2022-11-12T20:01:09.916Z,51.70
2022-11-12T20:03:59.100Z,46.60
2022-11-12T20:06:47.000Z,45.90
2022-11-12T20:09:34.581Z,44.50
2022-11-12T20:12:22.218Z,44.90
2022-11-12T20:15:10.671Z,42.40
2022-11-12T20:17:58.190Z,48.60
2022-11-12T20:21:05.273Z,57.80
2022-11-12T20:23:53.202Z,41.60
2022-11-12T20:26:40.733Z,47.60
2022-11-12T20:29:28.256Z,47.50
2022-11-12T20:32:16.093Z,50.30
2022-11-12T20:35:08.537Z,52.70
2022-11-12T20:38:00.288Z,53.20
2022-11-12T20:40:47.833Z,54.00
2022-11-12T20:43:35.957Z,49.70
2022-11-12T20:46:25.234Z,49.20
2022-11-12T20:49:12.425Z,50.00
2022-11-12T20:51:59.662Z,43.60
2022-11-12T20:54:46.770Z,44.50
2022-11-12T20:57:34.191Z,34.80
2022-11-12T21:00:24.282Z,36.60
2022-11-12T21:03:11.916Z,31.60
2022-11-12T21:06:03.868Z,31.50
2022-11-12T21:08:51.883Z,37.80
2022-11-12T21:11:39.423Z,36.70
2022-11-12T21:14:26.531Z,34.30
2022-11-12T21:17:13.651Z,35.10
2022-11-12T21:20:00.881Z,31.90
2022-11-12T21:22:48.483Z,29.90
2022-11-12T21:25:38.366Z,30.00
2022-11-12T21:28:28.857Z,28.80
2022-11-12T21:31:32.594Z,28.80
2022-11-12T21:34:19.610Z,26.50
2022-11-12T21:37:07.035Z,28.00
2022-11-12T21:39:54.161Z,28.40
2022-11-12T21:42:45.374Z,27.10
2022-11-12T21:45:32.697Z,27.50
2022-11-12T21:48:20.329Z,27.50
2022-11-12T21:51:12.185Z,27.80
2022-11-12T21:54:06.779Z,26.70
2022-11-12T21:56:54.279Z,29.90
2022-11-12T21:59:41.501Z,28.30
2022-11-12T22:02:29.083Z,31.70
2022-11-12T22:05:16.458Z,31.30
2022-11-12T22:08:03.778Z,30.60
2022-11-12T22:10:51.000Z,34.00
2022-11-12T22:13:38.734Z,26.40
2022-11-12T22:16:29.514Z,25.60
2022-11-12T22:19:19.574Z,31.70
2022-11-12T22:22:07.260Z,30.30
2022-11-12T22:24:54.276Z,36.00
2022-11-12T22:27:41.702Z,43.00
2022-11-12T22:30:29.231Z,40.40
2022-11-12T22:33:16.574Z,39.40
2022-11-12T22:36:11.274Z,38.30
2022-11-12T22:38:59.086Z,42.00
2022-11-12T22:41:46.992Z,36.10
2022-11-12T22:44:34.348Z,36.20
2022-11-12T22:47:21.774Z,37.10
2022-11-12T22:50:10.536Z,38.20
2022-11-12T22:52:57.857Z,36.30
2022-11-12T22:55:45.179Z,36.50
2022-11-12T22:58:36.993Z,36.40
2022-11-12T23:01:31.278Z,32.20
2022-11-12T23:04:19.029Z,29.60
2022-11-12T23:07:06.468Z,27.00
2022-11-12T23:09:54.087Z,28.20
2022-11-12T23:12:41.411Z,28.20
2022-11-12T23:15:32.641Z,27.20
2022-11-12T23:18:20.769Z,28.50
2022-11-12T23:21:12.450Z,28.40
2022-11-12T23:24:00.166Z,28.60
2022-11-12T23:26:47.246Z,27.80
2022-11-12T23:29:34.981Z,26.40
2022-11-12T23:32:22.408Z,25.60
2022-11-12T23:35:11.268Z,32.40
2022-11-12T23:37:58.897Z,27.40
2022-11-12T23:40:56.430Z,27.10
2022-11-12T23:43:44.424Z,94.10
2022-11-12T23:46:31.621Z,68.70
2022-11-12T23:49:18.944Z,22.00
2022-11-12T23:52:06.169Z,18.60
2022-11-12T23:54:53.390Z,58.10
2022-11-12T23:57:40.918Z,48.90
